createdAt,value
2022-08-01T00:01:26.412Z,3.67
2022-08-01T00:03:54.883Z,3.13
2022-08-01T00:06:24.679Z,3.50
2022-08-01T00:08:52.986Z,3.37
2022-08-01T00:11:21.512Z,3.40
2022-08-01T00:13:49.959Z,3.50
2022-08-01T00:16:18.383Z,3.67
2022-08-01T00:18:47.195Z,3.43
2022-08-01T00:21:15.617Z,3.30
2022-08-01T00:23:46.367Z,3.13
2022-08-01T00:26:14.892Z,3.13
2022-08-01T00:28:43.902Z,3.60
2022-08-01T00:31:12.252Z,3.40
2022-08-01T00:33:40.722Z,3.27
2022-08-01T00:36:09.169Z,3.57
2022-08-01T00:38:37.633Z,3.20
2022-08-01T00:41:07.341Z,3.60
2022-08-01T00:43:35.782Z,3.47
2022-08-01T00:46:04.091Z,3.70
2022-08-01T00:48:32.514Z,3.10
2022-08-01T00:51:01.421Z,3.60
2022-08-01T00:53:50.791Z,3.60
2022-08-01T00:56:20.507Z,3.50
2022-08-01T00:58:49.053Z,3.30
2022-08-01T01:01:19.458Z,3.00
2022-08-01T01:04:03.289Z,3.33
2022-08-01T01:06:44.887Z,3.70
2022-08-01T01:09:24.486Z,3.60
2022-08-01T01:12:00.510Z,3.30
2022-08-01T01:14:33.265Z,3.10
2022-08-01T01:17:02.743Z,3.73
2022-08-01T01:19:33.132Z,3.70
2022-08-01T01:22:16.190Z,3.43
2022-08-01T01:24:50.246Z,3.30
2022-08-01T01:27:21.943Z,3.33
2022-08-01T01:29:58.832Z,3.70
2022-08-01T01:32:35.028Z,3.63
2022-08-01T01:35:04.986Z,3.67
2022-08-01T01:37:34.836Z,3.43
2022-08-01T01:40:04.897Z,3.53
2022-08-01T01:42:33.461Z,3.80
2022-08-01T01:45:04.334Z,3.53
2022-08-01T01:47:33.956Z,3.80
2022-08-01T01:50:02.890Z,3.70
2022-08-01T01:52:32.468Z,3.67
2022-08-01T01:55:01.647Z,3.80
2022-08-01T01:57:31.299Z,3.33
2022-08-01T02:00:00.437Z,4.23
2022-08-01T02:02:30.910Z,3.60
2022-08-01T02:04:59.725Z,3.97
2022-08-01T02:07:29.146Z,3.60
2022-08-01T02:09:58.290Z,3.90
2022-08-01T02:12:27.021Z,4.07
2022-08-01T02:14:56.034Z,3.77
2022-08-01T02:17:26.361Z,3.80
2022-08-01T02:19:56.578Z,4.00
2022-08-01T02:22:28.935Z,3.80
2022-08-01T02:24:58.227Z,3.80
2022-08-01T02:27:27.954Z,3.47
2022-08-01T02:30:01.082Z,3.87
2022-08-01T02:32:33.521Z,3.50
2022-08-01T02:35:04.688Z,3.80
2022-08-01T02:37:34.480Z,3.67
2022-08-01T02:40:03.511Z,3.87
2022-08-01T02:42:32.606Z,3.27
2022-08-01T02:45:01.103Z,3.80
2022-08-01T02:47:30.518Z,3.40
2022-08-01T02:50:00.011Z,3.50
2022-08-01T02:52:30.160Z,3.50
2022-08-01T02:54:58.755Z,3.23
2022-08-01T02:57:45.455Z,3.10
2022-08-01T03:00:16.618Z,3.60
2022-08-01T03:02:46.442Z,3.67
2022-08-01T03:05:15.522Z,2.87
2022-08-01T03:07:45.551Z,3.40
2022-08-01T03:10:17.392Z,3.67
2022-08-01T03:12:47.350Z,3.50
2022-08-01T03:15:17.228Z,3.50
2022-08-01T03:17:47.120Z,3.40
2022-08-01T03:20:16.891Z,3.90
2022-08-01T03:22:47.493Z,3.80
2022-08-01T03:25:16.576Z,3.60
2022-08-01T03:27:45.751Z,3.70
2022-08-01T03:30:14.928Z,3.53
2022-08-01T03:32:43.481Z,3.57
2022-08-01T03:35:11.960Z,3.50
2022-08-01T03:38:00.291Z,3.43
2022-08-01T03:40:38.287Z,3.57
2022-08-01T03:43:09.185Z,3.60
2022-08-01T03:45:39.377Z,3.17
2022-08-01T03:48:09.364Z,2.77
2022-08-01T03:50:38.790Z,2.70
2022-08-01T03:53:09.055Z,2.77
2022-08-01T03:55:39.498Z,2.57
2022-08-01T03:58:09.877Z,2.57
2022-08-01T04:00:40.896Z,2.60
2022-08-01T04:03:10.243Z,2.57
2022-08-01T04:05:38.551Z,2.43
2022-08-01T04:08:07.382Z,2.20
2022-08-01T04:10:35.881Z,2.40
2022-08-01T04:13:05.562Z,2.30
2022-08-01T04:15:34.011Z,2.10
2022-08-01T04:18:02.410Z,2.20
2022-08-01T04:20:30.886Z,2.07
2022-08-01T04:22:59.291Z,2.50
2022-08-01T04:25:28.967Z,2.30
2022-08-01T04:27:57.643Z,2.20
2022-08-01T04:30:29.117Z,2.00
2022-08-01T04:33:00.185Z,2.03
2022-08-01T04:36:03.956Z,2.37
2022-08-01T04:38:19.518Z,1.87
2022-08-01T04:40:48.248Z,2.20
2022-08-01T04:43:16.818Z,2.10
2022-08-01T04:45:47.768Z,2.30
2022-08-01T04:48:16.508Z,2.07
2022-08-01T04:50:45.407Z,2.00
2022-08-01T04:53:15.795Z,2.10
2022-08-01T04:55:44.229Z,2.40
2022-08-01T04:58:17.376Z,2.00
2022-08-01T05:00:48.336Z,2.17
2022-08-01T05:03:16.777Z,2.30
2022-08-01T05:05:45.103Z,1.80
2022-08-01T05:08:13.625Z,1.90
2022-08-01T05:10:41.928Z,1.90
2022-08-01T05:13:10.629Z,1.90
2022-08-01T05:15:39.153Z,1.60
2022-08-01T05:18:09.569Z,2.00
2022-08-01T05:20:38.895Z,1.90
2022-08-01T05:23:09.270Z,1.90
2022-08-01T05:25:56.456Z,1.60
2022-08-01T05:28:26.645Z,1.50
2022-08-01T05:30:56.007Z,1.40
2022-08-01T05:33:25.815Z,1.10
2022-08-01T05:35:54.387Z,1.30
2022-08-01T05:38:22.697Z,1.20
2022-08-01T05:40:51.039Z,1.20
2022-08-01T05:43:19.487Z,1.30
2022-08-01T05:45:48.225Z,1.40
2022-08-01T05:48:16.581Z,1.50
2022-08-01T05:50:47.042Z,1.70
2022-08-01T05:53:15.343Z,1.50
2022-08-01T05:55:43.662Z,1.77
2022-08-01T05:58:12.607Z,1.60
2022-08-01T06:00:41.121Z,1.53
2022-08-01T06:03:09.462Z,1.80
2022-08-01T06:05:38.146Z,1.60
2022-08-01T06:08:08.028Z,2.00
2022-08-01T06:10:36.388Z,1.90
2022-08-01T06:13:05.099Z,1.53
2022-08-01T06:15:33.414Z,1.80
2022-08-01T06:18:02.023Z,2.10
2022-08-01T06:20:30.530Z,1.70
2022-08-01T06:22:59.913Z,1.90
2022-08-01T06:25:32.382Z,1.90
2022-08-01T06:28:00.797Z,2.10
2022-08-01T06:30:29.417Z,1.33
2022-08-01T06:32:59.795Z,1.70
2022-08-01T06:35:29.551Z,1.70
2022-08-01T06:37:58.086Z,1.93
2022-08-01T06:40:26.842Z,1.90
2022-08-01T06:42:57.069Z,1.87
2022-08-01T06:45:26.845Z,1.80
2022-08-01T06:47:55.363Z,1.83
2022-08-01T06:50:23.878Z,1.80
2022-08-01T06:52:52.177Z,1.70
2022-08-01T06:55:20.799Z,2.20
2022-08-01T06:57:49.649Z,1.90
2022-08-01T07:00:23.324Z,2.00
2022-08-01T07:02:51.902Z,1.80
2022-08-01T07:05:20.246Z,1.90
2022-08-01T07:07:48.572Z,1.80
2022-08-01T07:10:17.181Z,1.60
2022-08-01T07:12:45.586Z,1.27
2022-08-01T07:15:14.306Z,1.47
2022-08-01T07:17:44.736Z,1.50
2022-08-01T07:20:16.418Z,1.37
2022-08-01T07:22:48.142Z,1.60
2022-08-01T07:25:17.429Z,2.07
2022-08-01T07:27:46.756Z,1.37
2022-08-01T07:30:15.580Z,1.50
2022-08-01T07:32:45.279Z,1.10
2022-08-01T07:35:13.762Z,1.27
2022-08-01T07:37:48.406Z,1.37
2022-08-01T07:40:18.603Z,1.03
2022-08-01T07:42:47.285Z,1.10
2022-08-01T07:45:16.032Z,1.43
2022-08-01T07:47:46.295Z,1.30
2022-08-01T07:50:14.811Z,1.00
2022-08-01T07:52:43.189Z,1.30
2022-08-01T07:55:16.390Z,1.20
2022-08-01T07:57:45.593Z,1.10
2022-08-01T08:00:14.828Z,1.10
2022-08-01T08:02:43.149Z,1.20
2022-08-01T08:05:13.942Z,1.03
2022-08-01T08:07:42.476Z,0.90
2022-08-01T08:10:11.528Z,1.00
2022-08-01T08:12:39.978Z,0.80
2022-08-01T08:15:08.895Z,0.90
2022-08-01T08:17:37.220Z,1.00
2022-08-01T08:20:06.477Z,0.90
2022-08-01T08:22:38.851Z,1.10
2022-08-01T08:25:08.026Z,0.80
2022-08-01T08:27:37.315Z,0.73
2022-08-01T08:30:08.662Z,0.83
2022-08-01T08:32:37.491Z,0.97
2022-08-01T08:35:06.166Z,1.40
2022-08-01T08:37:39.134Z,0.80
2022-08-01T08:40:13.478Z,0.80
2022-08-01T08:42:43.188Z,0.87
2022-08-01T08:45:12.659Z,0.93
2022-08-01T08:47:41.514Z,1.10
2022-08-01T08:50:10.512Z,0.90
2022-08-01T08:52:41.148Z,0.77
2022-08-01T08:55:10.606Z,0.87
2022-08-01T08:57:42.538Z,0.90
2022-08-01T09:00:12.827Z,0.70
2022-08-01T09:02:43.871Z,0.70
2022-08-01T09:05:17.434Z,0.70
2022-08-01T09:07:48.123Z,0.70
2022-08-01T09:10:16.471Z,0.90
2022-08-01T09:12:59.702Z,0.90
2022-08-01T09:15:40.153Z,0.70
2022-08-01T09:18:08.685Z,0.90
2022-08-01T09:20:37.255Z,0.80
2022-08-01T09:23:06.128Z,0.90
2022-08-01T09:25:52.751Z,0.80
2022-08-01T09:28:29.560Z,0.80
2022-08-01T09:30:59.842Z,0.90
2022-08-01T09:33:28.712Z,0.70
2022-08-01T09:35:57.494Z,0.70
2022-08-01T09:38:28.329Z,0.60
2022-08-01T09:40:58.266Z,0.70
2022-08-01T09:43:27.954Z,0.87
2022-08-01T09:45:57.720Z,0.80
2022-08-01T09:48:30.225Z,0.80
2022-08-01T09:51:04.382Z,0.70
2022-08-01T09:53:51.317Z,0.80
2022-08-01T09:56:20.834Z,0.80
2022-08-01T09:58:59.985Z,1.00
2022-08-01T10:01:37.130Z,1.03
2022-08-01T10:04:12.791Z,0.90
2022-08-01T10:06:43.800Z,0.93
2022-08-01T10:09:13.398Z,1.00
2022-08-01T10:11:43.325Z,0.90
2022-08-01T10:14:17.903Z,0.70
2022-08-01T10:16:53.474Z,0.80
2022-08-01T10:19:28.822Z,1.00
2022-08-01T10:22:00.224Z,0.90
2022-08-01T10:24:33.370Z,1.00
2022-08-01T10:27:08.400Z,0.80
2022-08-01T10:29:45.613Z,0.87
2022-08-01T10:32:16.188Z,0.90
2022-08-01T10:34:45.991Z,0.80
2022-08-01T10:37:16.242Z,0.90
2022-08-01T10:39:46.900Z,0.77
2022-08-01T10:42:16.092Z,0.80
2022-08-01T10:44:48.861Z,0.70
2022-08-01T10:47:23.627Z,0.90
2022-08-01T10:50:01.649Z,1.00
2022-08-01T10:52:31.405Z,0.90
2022-08-01T10:55:05.663Z,1.00
2022-08-01T10:57:44.381Z,1.00
2022-08-01T11:00:21.674Z,1.13
2022-08-01T11:03:01.742Z,1.20
2022-08-01T11:05:34.080Z,1.07
2022-08-01T11:08:06.811Z,1.00
2022-08-01T11:10:38.263Z,1.10
2022-08-01T11:13:09.758Z,1.00
2022-08-01T11:15:50.225Z,0.90
2022-08-01T11:18:37.570Z,0.97
2022-08-01T11:21:58.160Z,1.00
2022-08-01T11:23:57.707Z,0.90
2022-08-01T11:26:29.210Z,0.90
2022-08-01T11:29:20.647Z,0.90
2022-08-01T11:31:49.820Z,0.90
2022-08-01T11:34:18.494Z,0.80
2022-08-01T11:37:03.486Z,0.90
2022-08-01T11:39:36.786Z,1.00
2022-08-01T11:42:21.039Z,1.00
2022-08-01T11:44:53.003Z,0.93
2022-08-01T11:47:21.554Z,0.90
2022-08-01T11:49:56.235Z,0.80
2022-08-01T11:52:31.119Z,0.90
2022-08-01T11:55:00.328Z,0.73
2022-08-01T11:57:34.725Z,0.80
2022-08-01T12:00:08.845Z,1.13
2022-08-01T12:02:37.716Z,0.90
2022-08-01T12:05:08.362Z,0.90
2022-08-01T12:07:38.697Z,0.90
2022-08-01T12:10:08.486Z,0.90
2022-08-01T12:12:37.967Z,1.00
2022-08-01T12:15:10.107Z,1.10
2022-08-01T12:17:39.810Z,0.90
2022-08-01T12:20:09.202Z,0.90
2022-08-01T12:22:39.226Z,0.88
2022-08-01T12:25:10.479Z,0.80
2022-08-01T12:27:39.342Z,0.90
2022-08-01T12:30:09.386Z,0.68
2022-08-01T12:32:38.757Z,0.82
2022-08-01T12:35:08.053Z,0.90
2022-08-01T12:37:39.432Z,1.00
2022-08-01T12:40:14.991Z,0.90
2022-08-01T12:42:44.918Z,0.77
2022-08-01T12:45:15.557Z,0.90
2022-08-01T12:47:44.483Z,0.77
2022-08-01T12:50:14.618Z,0.70
2022-08-01T12:52:44.954Z,0.85
2022-08-01T12:55:14.444Z,0.93
2022-08-01T12:57:45.635Z,0.73
2022-08-01T13:00:19.233Z,0.93
2022-08-01T13:02:48.820Z,0.63
2022-08-01T13:05:17.785Z,0.77
2022-08-01T13:07:48.784Z,0.70
2022-08-01T13:10:18.190Z,0.70
2022-08-01T13:12:54.083Z,0.73
2022-08-01T13:15:24.553Z,0.55
2022-08-01T13:17:53.221Z,0.52
2022-08-01T13:20:25.307Z,0.80
2022-08-01T13:22:55.171Z,0.70
2022-08-01T13:25:26.063Z,0.70
2022-08-01T13:28:10.735Z,0.70
2022-08-01T13:30:39.182Z,0.70
2022-08-01T13:33:07.653Z,0.65
2022-08-01T13:35:36.070Z,0.80
2022-08-01T13:38:05.717Z,0.70
2022-08-01T13:40:34.169Z,0.73
2022-08-01T13:43:02.643Z,0.90
2022-08-01T13:45:30.995Z,0.70
2022-08-01T13:48:03.869Z,0.70
2022-08-01T13:50:41.657Z,0.70
2022-08-01T13:53:11.741Z,0.70
2022-08-01T13:55:40.055Z,0.70
2022-08-01T13:58:08.907Z,0.80
2022-08-01T14:00:37.301Z,0.90
2022-08-01T14:03:06.569Z,0.80
2022-08-01T14:05:35.294Z,0.80
2022-08-01T14:08:03.601Z,0.88
2022-08-01T14:10:34.379Z,0.80
2022-08-01T14:13:06.670Z,0.80
2022-08-01T14:15:40.138Z,0.63
2022-08-01T14:18:09.930Z,0.90
2022-08-01T14:20:39.450Z,0.80
2022-08-01T14:23:08.846Z,0.77
2022-08-01T14:25:58.672Z,0.83
2022-08-01T14:28:29.288Z,0.90
2022-08-01T14:30:58.427Z,0.70
2022-08-01T14:33:27.511Z,0.80
2022-08-01T14:36:05.089Z,0.70
2022-08-01T14:38:34.968Z,0.80
2022-08-01T14:41:04.835Z,0.80
2022-08-01T14:43:34.212Z,0.80
2022-08-01T14:46:04.853Z,0.80
2022-08-01T14:48:33.472Z,0.80
2022-08-01T14:51:03.730Z,0.80
2022-08-01T14:53:35.957Z,0.97
2022-08-01T14:56:06.098Z,0.80
2022-08-01T14:58:34.934Z,0.90
2022-08-01T15:01:03.480Z,0.70
2022-08-01T15:03:33.983Z,0.70
2022-08-01T15:06:03.430Z,0.70
2022-08-01T15:08:33.366Z,0.60
2022-08-01T15:11:03.074Z,0.70
2022-08-01T15:13:32.981Z,0.70
2022-08-01T15:16:01.723Z,0.90
2022-08-01T15:18:30.155Z,0.70
2022-08-01T15:20:58.992Z,0.57
2022-08-01T15:23:27.381Z,0.70
2022-08-01T15:25:55.726Z,0.60
2022-08-01T15:28:27.079Z,1.00
2022-08-01T15:30:56.964Z,0.82
2022-08-01T15:33:25.702Z,0.80
2022-08-01T15:35:54.297Z,1.00
2022-08-01T15:38:23.307Z,0.90
2022-08-01T15:40:51.633Z,1.00
2022-08-01T15:43:20.497Z,0.90
2022-08-01T15:45:49.208Z,0.90
2022-08-01T15:48:19.215Z,0.97
2022-08-01T15:50:47.699Z,1.10
2022-08-01T15:53:16.055Z,1.00
2022-08-01T15:55:48.870Z,1.03
2022-08-01T15:58:21.187Z,1.00
2022-08-01T16:00:49.562Z,0.90
2022-08-01T16:03:19.272Z,0.80
2022-08-01T16:05:50.207Z,1.07
2022-08-01T16:08:18.606Z,0.90
2022-08-01T16:10:46.914Z,0.97
2022-08-01T16:13:15.461Z,0.97
2022-08-01T16:15:43.772Z,1.10
2022-08-01T16:18:14.562Z,1.00
2022-08-01T16:20:46.105Z,1.03
2022-08-01T16:23:15.289Z,1.10
2022-08-01T16:25:44.694Z,1.00
2022-08-01T16:28:14.545Z,1.10
2022-08-01T16:30:47.827Z,1.00
2022-08-01T16:33:53.318Z,1.20
2022-08-01T16:36:16.971Z,0.90
2022-08-01T16:38:45.824Z,1.20
2022-08-01T16:41:19.010Z,1.00
2022-08-01T16:43:53.848Z,1.00
2022-08-01T16:46:23.422Z,1.37
2022-08-01T16:48:52.131Z,1.17
2022-08-01T16:51:21.887Z,1.23
2022-08-01T16:53:50.353Z,1.10
2022-08-01T16:56:18.886Z,1.17
2022-08-01T16:58:47.190Z,1.20
2022-08-01T17:02:01.428Z,1.20
2022-08-01T17:04:04.260Z,1.47
2022-08-01T17:06:34.104Z,1.03
2022-08-01T17:09:04.523Z,1.20
2022-08-01T17:11:33.262Z,1.40
2022-08-01T17:14:01.800Z,1.20
2022-08-01T17:16:30.098Z,1.10
2022-08-01T17:18:58.656Z,1.30
2022-08-01T17:21:27.038Z,1.20
2022-08-01T17:23:56.743Z,1.20
2022-08-01T17:26:25.187Z,1.17
2022-08-01T17:28:53.591Z,1.10
2022-08-01T17:31:21.882Z,1.37
2022-08-01T17:33:54.363Z,1.07
2022-08-01T17:36:23.481Z,1.17
2022-08-01T17:38:51.997Z,0.90
2022-08-01T17:41:21.659Z,0.83
2022-08-01T17:43:50.085Z,0.87
2022-08-01T17:46:18.611Z,0.83
2022-08-01T17:48:47.104Z,1.00
2022-08-01T17:51:20.695Z,1.10
2022-08-01T17:53:57.333Z,0.83
2022-08-01T17:56:28.403Z,0.87
2022-08-01T17:58:57.083Z,0.90
2022-08-01T18:01:27.058Z,1.07
2022-08-01T18:03:55.964Z,1.00
2022-08-01T18:06:26.618Z,0.90
2022-08-01T18:08:56.679Z,1.17
2022-08-01T18:11:29.685Z,1.00
2022-08-01T18:14:06.097Z,1.20
2022-08-01T18:16:34.570Z,1.13
2022-08-01T18:19:02.998Z,1.20
2022-08-01T18:21:32.224Z,1.10
2022-08-01T18:24:01.714Z,1.20
2022-08-01T18:26:31.417Z,1.30
2022-08-01T18:28:59.743Z,1.00
2022-08-01T18:31:28.317Z,1.20
2022-08-01T18:33:56.633Z,1.23
2022-08-01T18:36:33.061Z,1.03
2022-08-01T18:39:04.285Z,0.80
2022-08-01T18:41:34.446Z,1.07
2022-08-01T18:44:05.486Z,1.00
2022-08-01T18:46:36.879Z,1.00
2022-08-01T18:49:05.596Z,1.13
2022-08-01T18:51:33.986Z,1.10
2022-08-01T18:54:02.410Z,1.00
2022-08-01T18:56:30.889Z,1.10
2022-08-01T18:59:00.558Z,1.00
2022-08-01T19:01:29.225Z,1.00
2022-08-01T19:03:57.657Z,1.17
2022-08-01T19:06:27.170Z,1.10
2022-08-01T19:09:01.916Z,0.93
2022-08-01T19:11:30.963Z,1.13
2022-08-01T19:14:00.805Z,1.17
2022-08-01T19:16:29.098Z,1.20
2022-08-01T19:18:57.550Z,1.17
2022-08-01T19:21:26.794Z,1.13
2022-08-01T19:24:12.741Z,1.33
2022-08-01T19:26:41.937Z,1.20
2022-08-01T19:29:16.427Z,1.50
2022-08-01T19:31:48.769Z,1.10
2022-08-01T19:34:18.247Z,1.03
2022-08-01T19:36:48.480Z,1.10
2022-08-01T19:39:18.241Z,1.30
2022-08-01T19:41:47.038Z,1.30
2022-08-01T19:44:17.861Z,1.03
2022-08-01T19:46:46.374Z,1.10
2022-08-01T19:49:15.031Z,1.10
2022-08-01T19:51:44.660Z,1.17
2022-08-01T19:54:14.106Z,1.20
2022-08-01T19:56:44.650Z,1.30
2022-08-01T19:59:17.564Z,1.10
2022-08-01T20:01:46.788Z,1.47
2022-08-01T20:04:16.083Z,1.10
2022-08-01T20:06:44.565Z,1.17
2022-08-01T20:09:13.358Z,1.60
2022-08-01T20:11:45.205Z,1.60
2022-08-01T20:14:15.146Z,1.20
2022-08-01T20:16:44.976Z,1.00
2022-08-01T20:19:13.436Z,1.10
2022-08-01T20:21:42.282Z,1.63
2022-08-01T20:24:12.175Z,1.20
2022-08-01T20:26:41.574Z,1.20
2022-08-01T20:29:10.009Z,1.20
2022-08-01T20:31:43.848Z,1.67
2022-08-01T20:34:15.571Z,1.20
2022-08-01T20:36:54.693Z,1.13
2022-08-01T20:39:26.663Z,1.00
2022-08-01T20:42:00.102Z,1.10
2022-08-01T20:44:32.711Z,1.30
2022-08-01T20:47:02.193Z,1.20
2022-08-01T20:49:32.627Z,1.10
2022-08-01T20:52:02.038Z,1.20
2022-08-01T20:54:40.813Z,1.17
2022-08-01T20:57:13.309Z,1.20
2022-08-01T20:59:55.966Z,1.10
2022-08-01T21:02:32.490Z,1.90
2022-08-01T21:05:04.943Z,1.43
2022-08-01T21:07:34.827Z,1.40
2022-08-01T21:10:07.126Z,1.20
2022-08-01T21:12:40.885Z,1.10
2022-08-01T21:15:10.298Z,1.00
2022-08-01T21:17:39.795Z,4.33
2022-08-01T21:20:10.757Z,1.33
2022-08-01T21:22:39.933Z,1.33
2022-08-01T21:25:11.082Z,1.17
2022-08-01T21:27:41.184Z,1.50
2022-08-01T21:30:10.758Z,1.43
2022-08-01T21:32:39.410Z,1.10
2022-08-01T21:35:15.963Z,1.20
2022-08-01T21:37:51.900Z,1.20
2022-08-01T21:40:21.974Z,1.20
2022-08-01T21:42:51.851Z,1.20
2022-08-01T21:45:21.768Z,1.80
2022-08-01T21:47:50.744Z,1.73
2022-08-01T21:50:20.657Z,1.30
2022-08-01T21:52:50.659Z,1.40
2022-08-01T21:55:34.033Z,1.20
2022-08-01T21:58:12.117Z,1.10
2022-08-01T22:00:42.037Z,1.77
2022-08-01T22:03:15.497Z,1.23
2022-08-01T22:05:50.389Z,1.27
2022-08-01T22:08:23.189Z,0.97
2022-08-01T22:10:56.276Z,0.93
2022-08-01T22:13:25.247Z,1.10
2022-08-01T22:15:54.575Z,1.37
2022-08-01T22:18:23.931Z,1.20
2022-08-01T22:20:54.751Z,1.30
2022-08-01T22:23:23.262Z,1.20
2022-08-01T22:25:53.101Z,1.60
2022-08-01T22:28:21.921Z,1.70
2022-08-01T22:30:51.514Z,1.63
2022-08-01T22:33:20.223Z,2.33
2022-08-01T22:35:49.293Z,1.83
2022-08-01T22:38:20.073Z,1.40
2022-08-01T22:40:51.293Z,1.57
2022-08-01T22:43:21.782Z,1.50
2022-08-01T22:45:57.949Z,1.20
2022-08-01T22:48:30.349Z,1.37
2022-08-01T22:51:07.924Z,1.37
2022-08-01T22:53:42.677Z,1.47
2022-08-01T22:56:12.045Z,7.03
2022-08-01T22:58:41.336Z,6.10
2022-08-01T23:01:21.433Z,2.10
2022-08-01T23:03:51.880Z,2.97
2022-08-01T23:06:22.854Z,1.77
2022-08-01T23:08:52.774Z,1.37
2022-08-01T23:11:21.691Z,1.60
2022-08-01T23:13:51.455Z,1.83
2022-08-01T23:16:20.390Z,1.57
2022-08-01T23:18:48.849Z,1.60
2022-08-01T23:21:18.611Z,1.60
2022-08-01T23:23:48.993Z,2.30
2022-08-01T23:26:18.673Z,1.50
2022-08-01T23:28:48.676Z,8.33
2022-08-01T23:31:17.692Z,5.60
2022-08-01T23:33:45.982Z,1.37
2022-08-01T23:36:17.505Z,1.20
2022-08-01T23:38:46.232Z,1.20
2022-08-01T23:41:15.905Z,1.57
2022-08-01T23:43:52.061Z,3.40
2022-08-01T23:46:21.141Z,1.43
2022-08-01T23:48:49.730Z,1.40
2022-08-01T23:51:24.610Z,1.30
2022-08-01T23:53:54.010Z,1.07
2022-08-01T23:56:25.261Z,1.13
2022-08-01T23:58:55.750Z,1.30
